sensor_id;sensor_type;location;lat;lon;timestamp;P1;durP1;ratioP1;P2;durP2;ratioP2
74532;SDS011;63012;51.096;-115.366;2023-01-01T00:01:54;1.60;;;0.30;;
74532;SDS011;63012;51.096;-115.366;2023-01-01T00:04:21;1.50;;;0.50;;
74532;SDS011;63012;51.096;-115.366;2023-01-01T00:06:48;1.20;;;0.30;;
74532;SDS011;63012;51.096;-115.366;2023-01-01T00:09:15;1.10;;;0.30;;
74532;SDS011;63012;51.096;-115.366;2023-01-01T00:12:01;1.70;;;0.40;;
74532;SDS011;63012;51.096;-115.366;2023-01-01T00:14:28;1.30;;;0.30;;
74532;SDS011;63012;51.096;-115.366;2023-01-01T00:16:55;1.60;;;0.30;;
74532;SDS011;63012;51.096;-115.366;2023-01-01T00:19:22;2.40;;;0.50;;
74532;SDS011;63012;51.096;-115.366;2023-01-01T00:21:49;1.30;;;0.30;;
74532;SDS011;63012;51.096;-115.366;2023-01-01T00:24:17;2.70;;;0.40;;
74532;SDS011;63012;51.096;-115.366;2023-01-01T00:26:43;1.50;;;0.30;;
74532;SDS011;63012;51.096;-115.366;2023-01-01T00:29:11;4.40;;;0.40;;
74532;SDS011;63012;51.096;-115.366;2023-01-01T00:31:38;1.30;;;0.30;;
74532;SDS011;63012;51.096;-115.366;2023-01-01T00:34:05;1.50;;;0.40;;
74532;SDS011;63012;51.096;-115.366;2023-01-01T00:36:32;1.60;;;0.40;;
74532;SDS011;63012;51.096;-115.366;2023-01-01T00:39:01;1.40;;;0.40;;
74532;SDS011;63012;51.096;-115.366;2023-01-01T00:41:28;3.00;;;0.30;;
74532;SDS011;63012;51.096;-115.366;2023-01-01T00:43:55;1.80;;;0.70;;
74532;SDS011;63012;51.096;-115.366;2023-01-01T00:46:22;2.20;;;0.30;;
74532;SDS011;63012;51.096;-115.366;2023-01-01T00:48:50;1.40;;;0.40;;
74532;SDS011;63012;51.096;-115.366;2023-01-01T00:51:17;1.50;;;0.40;;
74532;SDS011;63012;51.096;-115.366;2023-01-01T00:53:44;1.30;;;0.40;;
74532;SDS011;63012;51.096;-115.366;2023-01-01T00:56:11;1.30;;;0.40;;
74532;SDS011;63012;51.096;-115.366;2023-01-01T00:58:38;2.20;;;0.80;;
74532;SDS011;63012;51.096;-115.366;2023-01-01T01:01:05;1.80;;;0.40;;
74532;SDS011;63012;51.096;-115.366;2023-01-01T01:03:32;2.00;;;0.50;;
74532;SDS011;63012;51.096;-115.366;2023-01-01T01:08:32;1.70;;;0.50;;
74532;SDS011;63012;51.096;-115.366;2023-01-01T01:11:20;2.10;;;0.50;;
74532;SDS011;63012;51.096;-115.366;2023-01-01T01:13:51;1.60;;;0.40;;
74532;SDS011;63012;51.096;-115.366;2023-01-01T01:16:29;1.60;;;0.50;;
74532;SDS011;63012;51.096;-115.366;2023-01-01T01:19:01;1.50;;;0.40;;
74532;SDS011;63012;51.096;-115.366;2023-01-01T01:21:32;1.50;;;0.30;;
74532;SDS011;63012;51.096;-115.366;2023-01-01T01:24:02;2.90;;;0.50;;
74532;SDS011;63012;51.096;-115.366;2023-01-01T01:26:31;1.90;;;0.40;;
74532;SDS011;63012;51.096;-115.366;2023-01-01T01:28:59;2.70;;;0.80;;
74532;SDS011;63012;51.096;-115.366;2023-01-01T01:31:28;1.60;;;0.30;;
74532;SDS011;63012;51.096;-115.366;2023-01-01T01:33:57;2.00;;;0.60;;
74532;SDS011;63012;51.096;-115.366;2023-01-01T01:36:25;1.70;;;0.40;;
74532;SDS011;63012;51.096;-115.366;2023-01-01T01:38:53;2.10;;;0.40;;
74532;SDS011;63012;51.096;-115.366;2023-01-01T01:41:23;2.00;;;0.40;;
74532;SDS011;63012;51.096;-115.366;2023-01-01T01:43:53;2.50;;;0.80;;
74532;SDS011;63012;51.096;-115.366;2023-01-01T01:46:38;2.60;;;0.50;;
74532;SDS011;63012;51.096;-115.366;2023-01-01T01:49:26;2.80;;;0.70;;
74532;SDS011;63012;51.096;-115.366;2023-01-01T01:51:56;2.60;;;0.50;;
74532;SDS011;63012;51.096;-115.366;2023-01-01T01:54:26;1.60;;;0.40;;
74532;SDS011;63012;51.096;-115.366;2023-01-01T01:56:58;1.90;;;0.40;;
74532;SDS011;63012;51.096;-115.366;2023-01-01T01:59:34;1.40;;;0.40;;
74532;SDS011;63012;51.096;-115.366;2023-01-01T02:02:09;1.70;;;0.40;;
74532;SDS011;63012;51.096;-115.366;2023-01-01T02:04:43;1.70;;;0.40;;
74532;SDS011;63012;51.096;-115.366;2023-01-01T02:07:12;1.80;;;0.30;;
74532;SDS011;63012;51.096;-115.366;2023-01-01T02:09:41;1.60;;;0.40;;
74532;SDS011;63012;51.096;-115.366;2023-01-01T02:12:08;1.50;;;0.40;;
74532;SDS011;63012;51.096;-115.366;2023-01-01T02:14:35;1.60;;;0.40;;
74532;SDS011;63012;51.096;-115.366;2023-01-01T02:17:36;1.50;;;0.40;;
74532;SDS011;63012;51.096;-115.366;2023-01-01T02:20:32;1.50;;;0.40;;
74532;SDS011;63012;51.096;-115.366;2023-01-01T02:26:21;1.60;;;0.50;;
74532;SDS011;63012;51.096;-115.366;2023-01-01T02:32:14;1.60;;;0.50;;
74532;SDS011;63012;51.096;-115.366;2023-01-01T02:35:10;2.30;;;0.30;;
74532;SDS011;63012;51.096;-115.366;2023-01-01T02:38:14;1.30;;;0.30;;
74532;SDS011;63012;51.096;-115.366;2023-01-01T02:41:18;1.40;;;0.30;;
74532;SDS011;63012;51.096;-115.366;2023-01-01T02:43:47;1.50;;;0.40;;
74532;SDS011;63012;51.096;-115.366;2023-01-01T02:46:14;1.20;;;0.30;;
74532;SDS011;63012;51.096;-115.366;2023-01-01T02:48:47;1.40;;;0.40;;
74532;SDS011;63012;51.096;-115.366;2023-01-01T02:51:29;1.10;;;0.30;;
74532;SDS011;63012;51.096;-115.366;2023-01-01T03:00:03;1.80;;;0.40;;
74532;SDS011;63012;51.096;-115.366;2023-01-01T03:06:13;2.20;;;0.60;;
74532;SDS011;63012;51.096;-115.366;2023-01-01T03:11:49;2.70;;;0.40;;
74532;SDS011;63012;51.096;-115.366;2023-01-01T03:14:57;2.50;;;0.50;;
74532;SDS011;63012;51.096;-115.366;2023-01-01T03:20:16;1.50;;;0.30;;
74532;SDS011;63012;51.096;-115.366;2023-01-01T03:22:47;1.80;;;0.50;;
74532;SDS011;63012;51.096;-115.366;2023-01-01T03:25:26;1.30;;;0.30;;
74532;SDS011;63012;51.096;-115.366;2023-01-01T03:28:13;1.70;;;0.60;;
74532;SDS011;63012;51.096;-115.366;2023-01-01T03:30:45;2.50;;;0.30;;
74532;SDS011;63012;51.096;-115.366;2023-01-01T03:33:28;1.90;;;0.70;;
74532;SDS011;63012;51.096;-115.366;2023-01-01T03:38:55;1.50;;;0.40;;
74532;SDS011;63012;51.096;-115.366;2023-01-01T03:41:57;1.40;;;0.30;;
74532;SDS011;63012;51.096;-115.366;2023-01-01T03:45:08;1.70;;;0.60;;
74532;SDS011;63012;51.096;-115.366;2023-01-01T03:47:41;1.50;;;0.40;;
74532;SDS011;63012;51.096;-115.366;2023-01-01T03:50:09;1.50;;;0.30;;
74532;SDS011;63012;51.096;-115.366;2023-01-01T03:52:45;1.50;;;0.40;;
74532;SDS011;63012;51.096;-115.366;2023-01-01T04:01:12;1.80;;;0.50;;
74532;SDS011;63012;51.096;-115.366;2023-01-01T04:03:54;1.70;;;0.40;;
74532;SDS011;63012;51.096;-115.366;2023-01-01T04:06:22;1.90;;;0.40;;
74532;SDS011;63012;51.096;-115.366;2023-01-01T04:08:52;2.10;;;0.50;;
74532;SDS011;63012;51.096;-115.366;2023-01-01T04:11:27;2.10;;;0.50;;
74532;SDS011;63012;51.096;-115.366;2023-01-01T04:14:35;2.80;;;0.50;;
74532;SDS011;63012;51.096;-115.366;2023-01-01T04:17:06;2.50;;;0.60;;
74532;SDS011;63012;51.096;-115.366;2023-01-01T04:19:35;1.60;;;0.40;;
74532;SDS011;63012;51.096;-115.366;2023-01-01T04:22:03;1.60;;;0.40;;
74532;SDS011;63012;51.096;-115.366;2023-01-01T04:24:31;1.70;;;0.40;;
74532;SDS011;63012;51.096;-115.366;2023-01-01T04:26:58;1.50;;;0.40;;
74532;SDS011;63012;51.096;-115.366;2023-01-01T04:29:26;1.60;;;0.30;;
74532;SDS011;63012;51.096;-115.366;2023-01-01T04:31:53;1.90;;;0.70;;
74532;SDS011;63012;51.096;-115.366;2023-01-01T04:34:20;2.00;;;0.50;;
74532;SDS011;63012;51.096;-115.366;2023-01-01T04:36:47;1.60;;;0.50;;
74532;SDS011;63012;51.096;-115.366;2023-01-01T04:39:14;1.30;;;0.30;;
74532;SDS011;63012;51.096;-115.366;2023-01-01T04:41:41;1.50;;;0.40;;
74532;SDS011;63012;51.096;-115.366;2023-01-01T04:44:09;1.60;;;0.40;;
74532;SDS011;63012;51.096;-115.366;2023-01-01T04:46:36;2.60;;;0.50;;
74532;SDS011;63012;51.096;-115.366;2023-01-01T04:49:03;2.20;;;0.60;;
74532;SDS011;63012;51.096;-115.366;2023-01-01T04:51:30;2.40;;;0.50;;
74532;SDS011;63012;51.096;-115.366;2023-01-01T04:53:58;3.40;;;0.50;;
74532;SDS011;63012;51.096;-115.366;2023-01-01T04:56:27;2.20;;;0.40;;
74532;SDS011;63012;51.096;-115.366;2023-01-01T04:58:55;2.00;;;0.50;;
74532;SDS011;63012;51.096;-115.366;2023-01-01T05:01:25;2.40;;;0.60;;
74532;SDS011;63012;51.096;-115.366;2023-01-01T05:03:55;2.50;;;0.60;;
74532;SDS011;63012;51.096;-115.366;2023-01-01T05:06:22;3.40;;;0.60;;
74532;SDS011;63012;51.096;-115.366;2023-01-01T05:08:52;1.90;;;0.50;;
74532;SDS011;63012;51.096;-115.366;2023-01-01T05:11:23;3.00;;;0.80;;
74532;SDS011;63012;51.096;-115.366;2023-01-01T05:13:54;2.60;;;0.50;;
74532;SDS011;63012;51.096;-115.366;2023-01-01T05:16:27;3.20;;;0.60;;
74532;SDS011;63012;51.096;-115.366;2023-01-01T05:18:55;2.40;;;0.50;;
74532;SDS011;63012;51.096;-115.366;2023-01-01T05:21:36;2.10;;;0.50;;
74532;SDS011;63012;51.096;-115.366;2023-01-01T05:24:09;2.40;;;0.70;;
74532;SDS011;63012;51.096;-115.366;2023-01-01T05:26:40;2.50;;;0.60;;
74532;SDS011;63012;51.096;-115.366;2023-01-01T05:29:08;2.30;;;0.40;;
74532;SDS011;63012;51.096;-115.366;2023-01-01T05:31:36;2.70;;;0.70;;
74532;SDS011;63012;51.096;-115.366;2023-01-01T05:34:04;2.00;;;0.40;;
74532;SDS011;63012;51.096;-115.366;2023-01-01T05:36:33;2.00;;;0.60;;
74532;SDS011;63012;51.096;-115.366;2023-01-01T05:39:05;3.10;;;0.60;;
74532;SDS011;63012;51.096;-115.366;2023-01-01T05:41:55;2.00;;;0.50;;
74532;SDS011;63012;51.096;-115.366;2023-01-01T05:44:22;1.70;;;0.40;;
74532;SDS011;63012;51.096;-115.366;2023-01-01T05:46:49;2.20;;;0.30;;
74532;SDS011;63012;51.096;-115.366;2023-01-01T05:49:16;1.70;;;0.50;;
74532;SDS011;63012;51.096;-115.366;2023-01-01T05:51:44;1.60;;;0.40;;
74532;SDS011;63012;51.096;-115.366;2023-01-01T05:54:11;1.30;;;0.40;;
74532;SDS011;63012;51.096;-115.366;2023-01-01T05:56:38;1.80;;;0.50;;
74532;SDS011;63012;51.096;-115.366;2023-01-01T05:59:05;1.20;;;0.30;;
74532;SDS011;63012;51.096;-115.366;2023-01-01T06:01:32;1.80;;;0.40;;
74532;SDS011;63012;51.096;-115.366;2023-01-01T06:03:59;1.80;;;0.40;;
74532;SDS011;63012;51.096;-115.366;2023-01-01T06:06:29;1.40;;;0.30;;
74532;SDS011;63012;51.096;-115.366;2023-01-01T06:09:00;1.20;;;0.30;;
74532;SDS011;63012;51.096;-115.366;2023-01-01T06:11:29;1.50;;;0.40;;
74532;SDS011;63012;51.096;-115.366;2023-01-01T06:13:58;3.10;;;0.40;;
74532;SDS011;63012;51.096;-115.366;2023-01-01T06:16:27;2.60;;;0.70;;
74532;SDS011;63012;51.096;-115.366;2023-01-01T06:18:55;2.70;;;0.40;;
74532;SDS011;63012;51.096;-115.366;2023-01-01T06:21:24;1.70;;;0.50;;
74532;SDS011;63012;51.096;-115.366;2023-01-01T06:23:55;3.80;;;0.30;;
74532;SDS011;63012;51.096;-115.366;2023-01-01T06:26:30;1.30;;;0.40;;
74532;SDS011;63012;51.096;-115.366;2023-01-01T06:29:00;3.90;;;0.40;;
74532;SDS011;63012;51.096;-115.366;2023-01-01T06:31:28;1.90;;;0.30;;
74532;SDS011;63012;51.096;-115.366;2023-01-01T06:33:57;5.50;;;0.40;;
74532;SDS011;63012;51.096;-115.366;2023-01-01T06:36:25;5.50;;;0.40;;
74532;SDS011;63012;51.096;-115.366;2023-01-01T06:38:54;6.10;;;0.90;;
74532;SDS011;63012;51.096;-115.366;2023-01-01T06:41:25;5.50;;;0.80;;
74532;SDS011;63012;51.096;-115.366;2023-01-01T06:43:54;5.40;;;0.70;;
74532;SDS011;63012;51.096;-115.366;2023-01-01T06:46:31;3.70;;;0.50;;
74532;SDS011;63012;51.096;-115.366;2023-01-01T06:49:02;2.70;;;0.40;;
74532;SDS011;63012;51.096;-115.366;2023-01-01T06:51:35;3.50;;;0.60;;
74532;SDS011;63012;51.096;-115.366;2023-01-01T06:54:04;3.10;;;0.60;;
74532;SDS011;63012;51.096;-115.366;2023-01-01T06:56:32;2.20;;;0.60;;
74532;SDS011;63012;51.096;-115.366;2023-01-01T06:59:00;1.70;;;0.40;;
74532;SDS011;63012;51.096;-115.366;2023-01-01T07:01:29;3.80;;;0.40;;
74532;SDS011;63012;51.096;-115.366;2023-01-01T07:04:03;5.10;;;0.50;;
74532;SDS011;63012;51.096;-115.366;2023-01-01T07:06:36;2.90;;;0.30;;
74532;SDS011;63012;51.096;-115.366;2023-01-01T07:09:04;1.30;;;0.40;;
74532;SDS011;63012;51.096;-115.366;2023-01-01T07:11:33;1.70;;;0.40;;
74532;SDS011;63012;51.096;-115.366;2023-01-01T07:14:01;1.20;;;0.30;;
74532;SDS011;63012;51.096;-115.366;2023-01-01T07:16:29;2.30;;;0.30;;
74532;SDS011;63012;51.096;-115.366;2023-01-01T07:18:56;1.30;;;0.30;;
74532;SDS011;63012;51.096;-115.366;2023-01-01T07:21:40;1.20;;;0.30;;
74532;SDS011;63012;51.096;-115.366;2023-01-01T07:24:15;1.20;;;0.40;;
74532;SDS011;63012;51.096;-115.366;2023-01-01T07:26:43;1.20;;;0.30;;
74532;SDS011;63012;51.096;-115.366;2023-01-01T07:29:10;1.30;;;0.30;;
74532;SDS011;63012;51.096;-115.366;2023-01-01T07:31:42;1.30;;;0.40;;
74532;SDS011;63012;51.096;-115.366;2023-01-01T07:34:14;1.80;;;0.30;;
74532;SDS011;63012;51.096;-115.366;2023-01-01T07:36:44;1.50;;;0.40;;
74532;SDS011;63012;51.096;-115.366;2023-01-01T07:39:11;1.40;;;0.30;;
74532;SDS011;63012;51.096;-115.366;2023-01-01T07:41:39;1.30;;;0.30;;
74532;SDS011;63012;51.096;-115.366;2023-01-01T07:44:06;1.10;;;0.30;;
74532;SDS011;63012;51.096;-115.366;2023-01-01T07:46:34;2.10;;;0.40;;
74532;SDS011;63012;51.096;-115.366;2023-01-01T07:49:03;1.90;;;0.30;;
74532;SDS011;63012;51.096;-115.366;2023-01-01T07:51:30;2.10;;;0.50;;
74532;SDS011;63012;51.096;-115.366;2023-01-01T07:54:00;1.70;;;0.50;;
74532;SDS011;63012;51.096;-115.366;2023-01-01T07:56:27;1.70;;;0.50;;
74532;SDS011;63012;51.096;-115.366;2023-01-01T07:58:54;2.10;;;0.50;;
74532;SDS011;63012;51.096;-115.366;2023-01-01T08:01:21;2.60;;;0.50;;
74532;SDS011;63012;51.096;-115.366;2023-01-01T08:03:52;1.60;;;0.40;;
74532;SDS011;63012;51.096;-115.366;2023-01-01T08:06:19;2.50;;;0.60;;
74532;SDS011;63012;51.096;-115.366;2023-01-01T08:08:47;3.90;;;0.80;;
74532;SDS011;63012;51.096;-115.366;2023-01-01T08:11:14;2.60;;;0.60;;
74532;SDS011;63012;51.096;-115.366;2023-01-01T08:13:41;2.20;;;0.50;;
74532;SDS011;63012;51.096;-115.366;2023-01-01T08:16:08;2.50;;;0.60;;
74532;SDS011;63012;51.096;-115.366;2023-01-01T08:18:36;2.00;;;0.50;;
74532;SDS011;63012;51.096;-115.366;2023-01-01T08:21:04;2.30;;;0.50;;
74532;SDS011;63012;51.096;-115.366;2023-01-01T08:23:31;2.00;;;0.40;;
74532;SDS011;63012;51.096;-115.366;2023-01-01T08:26:00;2.30;;;0.50;;
74532;SDS011;63012;51.096;-115.366;2023-01-01T08:28:29;3.10;;;0.70;;
74532;SDS011;63012;51.096;-115.366;2023-01-01T08:30:57;3.40;;;0.90;;
74532;SDS011;63012;51.096;-115.366;2023-01-01T08:33:25;6.30;;;0.60;;
74532;SDS011;63012;51.096;-115.366;2023-01-01T08:35:52;3.40;;;0.80;;
74532;SDS011;63012;51.096;-115.366;2023-01-01T08:38:19;12.00;;;1.00;;
74532;SDS011;63012;51.096;-115.366;2023-01-01T08:40:46;8.20;;;1.20;;
74532;SDS011;63012;51.096;-115.366;2023-01-01T08:43:13;9.10;;;1.00;;
74532;SDS011;63012;51.096;-115.366;2023-01-01T08:45:40;4.80;;;0.90;;
74532;SDS011;63012;51.096;-115.366;2023-01-01T08:48:08;6.90;;;0.80;;
74532;SDS011;63012;51.096;-115.366;2023-01-01T08:50:35;10.00;;;0.60;;
74532;SDS011;63012;51.096;-115.366;2023-01-01T08:53:03;4.70;;;1.10;;
74532;SDS011;63012;51.096;-115.366;2023-01-01T08:55:30;4.10;;;0.50;;
74532;SDS011;63012;51.096;-115.366;2023-01-01T08:57:57;4.50;;;0.70;;
74532;SDS011;63012;51.096;-115.366;2023-01-01T09:00:24;9.00;;;0.60;;
74532;SDS011;63012;51.096;-115.366;2023-01-01T09:02:51;5.10;;;0.60;;
74532;SDS011;63012;51.096;-115.366;2023-01-01T09:05:19;5.80;;;1.00;;
74532;SDS011;63012;51.096;-115.366;2023-01-01T09:07:46;11.90;;;1.00;;
74532;SDS011;63012;51.096;-115.366;2023-01-01T09:10:12;5.90;;;0.90;;
74532;SDS011;63012;51.096;-115.366;2023-01-01T09:12:39;11.10;;;0.70;;
74532;SDS011;63012;51.096;-115.366;2023-01-01T09:15:13;5.40;;;1.00;;
74532;SDS011;63012;51.096;-115.366;2023-01-01T09:17:42;9.40;;;0.50;;
74532;SDS011;63012;51.096;-115.366;2023-01-01T09:20:09;5.50;;;0.70;;
74532;SDS011;63012;51.096;-115.366;2023-01-01T09:22:36;4.20;;;0.60;;
74532;SDS011;63012;51.096;-115.366;2023-01-01T09:25:04;8.80;;;0.90;;
74532;SDS011;63012;51.096;-115.366;2023-01-01T09:27:31;2.60;;;0.40;;
74532;SDS011;63012;51.096;-115.366;2023-01-01T09:29:58;3.40;;;0.60;;
74532;SDS011;63012;51.096;-115.366;2023-01-01T09:32:26;3.40;;;0.60;;
74532;SDS011;63012;51.096;-115.366;2023-01-01T09:34:53;5.90;;;0.50;;
74532;SDS011;63012;51.096;-115.366;2023-01-01T09:37:22;8.30;;;0.80;;
74532;SDS011;63012;51.096;-115.366;2023-01-01T09:39:50;10.00;;;1.10;;
74532;SDS011;63012;51.096;-115.366;2023-01-01T09:45:25;9.70;;;0.80;;
74532;SDS011;63012;51.096;-115.366;2023-01-01T09:48:04;6.20;;;1.20;;
74532;SDS011;63012;51.096;-115.366;2023-01-01T09:50:41;7.90;;;1.00;;
74532;SDS011;63012;51.096;-115.366;2023-01-01T09:55:50;8.70;;;1.20;;
74532;SDS011;63012;51.096;-115.366;2023-01-01T09:58:34;8.00;;;0.80;;
74532;SDS011;63012;51.096;-115.366;2023-01-01T10:15:33;10.40;;;0.90;;
74532;SDS011;63012;51.096;-115.366;2023-01-01T10:18:13;5.90;;;0.70;;
74532;SDS011;63012;51.096;-115.366;2023-01-01T10:21:06;6.00;;;0.60;;
74532;SDS011;63012;51.096;-115.366;2023-01-01T10:26:20;4.90;;;0.70;;
74532;SDS011;63012;51.096;-115.366;2023-01-01T10:28:56;5.30;;;0.80;;
74532;SDS011;63012;51.096;-115.366;2023-01-01T10:31:34;4.40;;;0.60;;
74532;SDS011;63012;51.096;-115.366;2023-01-01T10:34:18;5.50;;;0.70;;
74532;SDS011;63012;51.096;-115.366;2023-01-01T10:36:59;3.10;;;0.40;;
74532;SDS011;63012;51.096;-115.366;2023-01-01T10:39:28;7.70;;;0.70;;
74532;SDS011;63012;51.096;-115.366;2023-01-01T10:41:56;5.10;;;0.70;;
74532;SDS011;63012;51.096;-115.366;2023-01-01T10:44:31;5.50;;;0.90;;
74532;SDS011;63012;51.096;-115.366;2023-01-01T10:47:24;3.90;;;0.50;;
74532;SDS011;63012;51.096;-115.366;2023-01-01T10:50:04;4.60;;;0.40;;
74532;SDS011;63012;51.096;-115.366;2023-01-01T10:52:37;9.50;;;0.90;;
74532;SDS011;63012;51.096;-115.366;2023-01-01T10:55:18;6.70;;;0.70;;
74532;SDS011;63012;51.096;-115.366;2023-01-01T10:57:49;10.80;;;0.60;;
74532;SDS011;63012;51.096;-115.366;2023-01-01T11:00:24;9.80;;;0.70;;
74532;SDS011;63012;51.096;-115.366;2023-01-01T11:03:13;5.20;;;1.00;;
74532;SDS011;63012;51.096;-115.366;2023-01-01T11:06:19;8.60;;;0.70;;
74532;SDS011;63012;51.096;-115.366;2023-01-01T11:08:54;5.60;;;0.60;;
74532;SDS011;63012;51.096;-115.366;2023-01-01T11:11:29;12.10;;;1.30;;
74532;SDS011;63012;51.096;-115.366;2023-01-01T11:14:24;6.60;;;0.60;;
74532;SDS011;63012;51.096;-115.366;2023-01-01T11:16:52;7.60;;;0.60;;
74532;SDS011;63012;51.096;-115.366;2023-01-01T11:19:30;6.10;;;0.80;;
74532;SDS011;63012;51.096;-115.366;2023-01-01T11:22:03;6.60;;;0.80;;
74532;SDS011;63012;51.096;-115.366;2023-01-01T11:24:32;6.90;;;0.50;;
74532;SDS011;63012;51.096;-115.366;2023-01-01T11:29:50;7.20;;;0.90;;
74532;SDS011;63012;51.096;-115.366;2023-01-01T11:32:34;12.40;;;0.80;;
74532;SDS011;63012;51.096;-115.366;2023-01-01T11:35:05;6.50;;;0.80;;
74532;SDS011;63012;51.096;-115.366;2023-01-01T11:37:45;4.80;;;0.60;;
74532;SDS011;63012;51.096;-115.366;2023-01-01T11:40:32;9.30;;;0.70;;
74532;SDS011;63012;51.096;-115.366;2023-01-01T11:43:05;10.30;;;0.80;;
74532;SDS011;63012;51.096;-115.366;2023-01-01T11:45:42;6.50;;;0.50;;
74532;SDS011;63012;51.096;-115.366;2023-01-01T11:50:55;4.10;;;0.60;;
74532;SDS011;63012;51.096;-115.366;2023-01-01T11:53:29;5.50;;;0.60;;
74532;SDS011;63012;51.096;-115.366;2023-01-01T12:01:38;4.80;;;0.60;;
74532;SDS011;63012;51.096;-115.366;2023-01-01T12:04:48;6.10;;;0.40;;
74532;SDS011;63012;51.096;-115.366;2023-01-01T12:07:27;4.70;;;0.50;;
74532;SDS011;63012;51.096;-115.366;2023-01-01T12:10:05;4.90;;;0.70;;
74532;SDS011;63012;51.096;-115.366;2023-01-01T12:12:56;6.10;;;0.60;;
74532;SDS011;63012;51.096;-115.366;2023-01-01T12:16:17;6.20;;;0.50;;
74532;SDS011;63012;51.096;-115.366;2023-01-01T12:19:08;5.00;;;0.50;;
74532;SDS011;63012;51.096;-115.366;2023-01-01T12:21:43;2.00;;;0.50;;
74532;SDS011;63012;51.096;-115.366;2023-01-01T12:24:14;1.70;;;0.40;;
74532;SDS011;63012;51.096;-115.366;2023-01-01T12:27:08;2.10;;;0.50;;
74532;SDS011;63012;51.096;-115.366;2023-01-01T12:30:19;2.10;;;0.70;;
74532;SDS011;63012;51.096;-115.366;2023-01-01T12:33:20;2.40;;;0.40;;
74532;SDS011;63012;51.096;-115.366;2023-01-01T12:36:36;1.50;;;0.40;;
74532;SDS011;63012;51.096;-115.366;2023-01-01T12:42:59;2.40;;;0.60;;
74532;SDS011;63012;51.096;-115.366;2023-01-01T12:45:45;1.80;;;0.40;;
74532;SDS011;63012;51.096;-115.366;2023-01-01T12:51:29;1.60;;;0.40;;
74532;SDS011;63012;51.096;-115.366;2023-01-01T12:54:42;2.10;;;0.40;;
74532;SDS011;63012;51.096;-115.366;2023-01-01T12:58:05;2.00;;;0.60;;
74532;SDS011;63012;51.096;-115.366;2023-01-01T13:00:40;1.60;;;0.50;;
74532;SDS011;63012;51.096;-115.366;2023-01-01T13:03:40;2.10;;;0.60;;
74532;SDS011;63012;51.096;-115.366;2023-01-01T13:06:20;1.60;;;0.30;;
74532;SDS011;63012;51.096;-115.366;2023-01-01T13:09:14;1.90;;;0.40;;
74532;SDS011;63012;51.096;-115.366;2023-01-01T13:11:59;2.50;;;0.70;;
74532;SDS011;63012;51.096;-115.366;2023-01-01T13:14:42;2.20;;;0.60;;
74532;SDS011;63012;51.096;-115.366;2023-01-01T13:17:24;1.10;;;0.20;;
74532;SDS011;63012;51.096;-115.366;2023-01-01T13:22:41;4.40;;;0.40;;
74532;SDS011;63012;51.096;-115.366;2023-01-01T13:38:52;2.20;;;0.60;;
74532;SDS011;63012;51.096;-115.366;2023-01-01T13:41:38;1.60;;;0.50;;
74532;SDS011;63012;51.096;-115.366;2023-01-01T13:44:20;2.20;;;0.30;;
74532;SDS011;63012;51.096;-115.366;2023-01-01T13:50:15;1.40;;;0.30;;
74532;SDS011;63012;51.096;-115.366;2023-01-01T13:55:42;1.80;;;0.40;;
74532;SDS011;63012;51.096;-115.366;2023-01-01T14:03:48;2.50;;;0.50;;
74532;SDS011;63012;51.096;-115.366;2023-01-01T14:09:11;6.60;;;0.60;;
74532;SDS011;63012;51.096;-115.366;2023-01-01T14:11:40;3.10;;;0.50;;
74532;SDS011;63012;51.096;-115.366;2023-01-01T14:14:28;3.00;;;0.60;;
74532;SDS011;63012;51.096;-115.366;2023-01-01T14:17:00;5.50;;;0.50;;
74532;SDS011;63012;51.096;-115.366;2023-01-01T14:19:32;4.30;;;0.50;;
74532;SDS011;63012;51.096;-115.366;2023-01-01T14:22:00;2.30;;;0.50;;
74532;SDS011;63012;51.096;-115.366;2023-01-01T14:24:31;4.20;;;0.60;;
74532;SDS011;63012;51.096;-115.366;2023-01-01T14:26:59;3.00;;;0.40;;
74532;SDS011;63012;51.096;-115.366;2023-01-01T14:29:31;5.30;;;0.40;;
74532;SDS011;63012;51.096;-115.366;2023-01-01T14:32:02;3.70;;;0.50;;
74532;SDS011;63012;51.096;-115.366;2023-01-01T14:34:40;4.00;;;0.50;;
74532;SDS011;63012;51.096;-115.366;2023-01-01T14:37:22;6.20;;;0.50;;
74532;SDS011;63012;51.096;-115.366;2023-01-01T14:40:10;7.10;;;1.10;;
74532;SDS011;63012;51.096;-115.366;2023-01-01T14:42:44;4.70;;;0.40;;
74532;SDS011;63012;51.096;-115.366;2023-01-01T14:45:16;5.80;;;0.60;;
74532;SDS011;63012;51.096;-115.366;2023-01-01T14:47:47;3.30;;;0.60;;
74532;SDS011;63012;51.096;-115.366;2023-01-01T14:50:24;2.30;;;0.40;;
74532;SDS011;63012;51.096;-115.366;2023-01-01T14:55:43;2.60;;;0.50;;
74532;SDS011;63012;51.096;-115.366;2023-01-01T14:58:23;4.20;;;0.60;;
74532;SDS011;63012;51.096;-115.366;2023-01-01T15:00:52;2.80;;;0.50;;
74532;SDS011;63012;51.096;-115.366;2023-01-01T15:03:21;6.80;;;0.50;;
74532;SDS011;63012;51.096;-115.366;2023-01-01T15:06:02;2.10;;;0.40;;
74532;SDS011;63012;51.096;-115.366;2023-01-01T15:08:32;3.30;;;0.50;;
74532;SDS011;63012;51.096;-115.366;2023-01-01T15:11:02;3.80;;;0.60;;
74532;SDS011;63012;51.096;-115.366;2023-01-01T15:13:30;6.50;;;0.60;;
74532;SDS011;63012;51.096;-115.366;2023-01-01T15:16:15;7.80;;;0.60;;
74532;SDS011;63012;51.096;-115.366;2023-01-01T15:18:45;3.20;;;0.30;;
74532;SDS011;63012;51.096;-115.366;2023-01-01T15:24:17;3.00;;;0.90;;
74532;SDS011;63012;51.096;-115.366;2023-01-01T15:26:54;4.50;;;0.70;;
74532;SDS011;63012;51.096;-115.366;2023-01-01T15:29:28;2.20;;;0.30;;
74532;SDS011;63012;51.096;-115.366;2023-01-01T15:32:01;1.80;;;0.30;;
74532;SDS011;63012;51.096;-115.366;2023-01-01T15:34:53;1.80;;;0.40;;
74532;SDS011;63012;51.096;-115.366;2023-01-01T15:37:36;1.80;;;0.40;;
74532;SDS011;63012;51.096;-115.366;2023-01-01T15:45:57;1.80;;;0.40;;
74532;SDS011;63012;51.096;-115.366;2023-01-01T15:48:42;1.70;;;0.40;;
74532;SDS011;63012;51.096;-115.366;2023-01-01T15:51:18;1.80;;;0.50;;
74532;SDS011;63012;51.096;-115.366;2023-01-01T15:53:55;3.90;;;0.50;;
74532;SDS011;63012;51.096;-115.366;2023-01-01T15:56:30;3.60;;;0.40;;
74532;SDS011;63012;51.096;-115.366;2023-01-01T15:59:06;3.00;;;0.40;;
74532;SDS011;63012;51.096;-115.366;2023-01-01T16:01:41;1.30;;;0.30;;
74532;SDS011;63012;51.096;-115.366;2023-01-01T16:06:48;1.90;;;0.40;;
74532;SDS011;63012;51.096;-115.366;2023-01-01T16:09:18;2.00;;;0.60;;
74532;SDS011;63012;51.096;-115.366;2023-01-01T16:11:51;1.60;;;0.40;;
74532;SDS011;63012;51.096;-115.366;2023-01-01T16:14:19;2.30;;;0.40;;
74532;SDS011;63012;51.096;-115.366;2023-01-01T16:16:53;1.80;;;0.50;;
74532;SDS011;63012;51.096;-115.366;2023-01-01T16:19:23;2.30;;;0.50;;
74532;SDS011;63012;51.096;-115.366;2023-01-01T16:21:50;2.10;;;0.30;;
74532;SDS011;63012;51.096;-115.366;2023-01-01T16:24:19;1.80;;;0.40;;
74532;SDS011;63012;51.096;-115.366;2023-01-01T16:26:46;1.50;;;0.40;;
74532;SDS011;63012;51.096;-115.366;2023-01-01T16:29:14;2.70;;;0.40;;
74532;SDS011;63012;51.096;-115.366;2023-01-01T16:31:42;3.30;;;0.60;;
74532;SDS011;63012;51.096;-115.366;2023-01-01T16:34:15;3.90;;;0.50;;
74532;SDS011;63012;51.096;-115.366;2023-01-01T16:36:43;3.40;;;0.30;;
74532;SDS011;63012;51.096;-115.366;2023-01-01T16:39:10;4.70;;;0.40;;
74532;SDS011;63012;51.096;-115.366;2023-01-01T16:41:42;9.00;;;0.70;;
74532;SDS011;63012;51.096;-115.366;2023-01-01T16:44:13;2.10;;;0.40;;
74532;SDS011;63012;51.096;-115.366;2023-01-01T16:46:41;3.40;;;0.30;;